Time;durP1;ratioP1;P1;durP2;ratioP2;P2;SDS_P1;SDS_P2;PMS_P1;PMS_P2;Temp;Humidity;BMP_temperature;BMP_pressure;BME280_temperature;BME280_humidity;BME280_pressure;Samples;Min_cycle;Max_cycle;Signal;HPM_P1;HPM_P2
2021/09/20 00:04:36;;;;;;;24.80;7.80;;;;;;;13.75;100.00;94590.47;10531739;28;20028;-73
2021/09/20 00:09:37;;;;;;;16.67;7.90;;;;;;;13.80;100.00;94576.88;10530431;28;20282;-73
2021/09/20 00:14:37;;;;;;;22.67;7.10;;;;;;;13.70;100.00;94566.25;10531267;28;20381;-73
2021/09/20 00:19:38;;;;;;;12.23;8.37;;;;;;;13.73;100.00;94575.66;10531318;28;20624;-72
2021/09/20 00:24:38;;;;;;;15.88;8.13;;;;;;;13.62;100.00;94581.25;10530728;28;20270;-72
2021/09/20 00:29:39;;;;;;;14.48;7.72;;;;;;;13.54;100.00;94560.31;10512740;28;20444;-73
2021/09/20 00:34:39;;;;;;;14.82;8.48;;;;;;;13.47;100.00;94568.78;10530504;28;20511;-73
2021/09/20 00:39:40;;;;;;;18.88;10.98;;;;;;;13.50;100.00;94570.91;10530612;28;20459;-73
2021/09/20 00:44:40;;;;;;;22.52;10.73;;;;;;;13.46;100.00;94561.78;10511813;28;20439;-73
2021/09/20 00:49:42;;;;;;;17.92;11.00;;;;;;;13.44;100.00;94560.50;10529141;28;20028;-73
2021/09/20 00:54:43;;;;;;;20.50;11.15;;;;;;;13.40;100.00;94560.28;10529553;28;20035;-73
2021/09/20 00:59:44;;;;;;;22.90;11.02;;;;;;;13.40;100.00;94557.56;10529727;28;20533;-73
2021/09/20 01:04:44;;;;;;;21.33;11.90;;;;;;;13.37;100.00;94552.78;10528599;28;20055;-73
2021/09/20 01:09:45;;;;;;;19.08;10.95;;;;;;;13.40;100.00;94564.88;10529110;28;20031;-73
2021/09/20 01:14:46;;;;;;;27.95;12.15;;;;;;;13.40;100.00;94562.97;10529092;28;20048;-72
2021/09/20 01:19:46;;;;;;;21.10;11.85;;;;;;;13.39;100.00;94574.88;10528805;28;20573;-72
2021/09/20 01:24:47;;;;;;;20.40;12.40;;;;;;;13.41;100.00;94561.88;10528950;28;20035;-72
2021/09/20 01:29:48;;;;;;;18.90;11.95;;;;;;;13.46;100.00;94555.59;10528378;28;20542;-72
2021/09/20 01:34:48;;;;;;;18.05;10.63;;;;;;;13.54;100.00;94563.03;10527953;28;20038;-73
2021/09/20 01:39:49;;;;;;;16.67;10.77;;;;;;;13.54;100.00;94548.72;10528043;28;20016;-73
2021/09/20 01:44:49;;;;;;;20.47;9.77;;;;;;;13.54;100.00;94559.53;10528283;28;20268;-73
2021/09/20 01:49:50;;;;;;;20.15;10.60;;;;;;;13.61;100.00;94557.25;10528472;28;20791;-72
2021/09/20 01:54:50;;;;;;;22.15;10.63;;;;;;;13.53;100.00;94569.50;10528183;28;20020;-72
2021/09/20 01:59:51;;;;;;;18.27;10.60;;;;;;;13.47;100.00;94559.91;10527860;28;20024;-73
2021/09/20 02:04:52;;;;;;;19.55;9.65;;;;;;;13.43;100.00;94558.91;10536927;28;20139;-73
2021/09/20 02:09:52;;;;;;;18.25;10.65;;;;;;;13.22;100.00;94545.69;10536609;28;20020;-73
2021/09/20 02:14:53;;;;;;;20.15;11.55;;;;;;;13.29;100.00;94562.31;10535615;28;20044;-72
2021/09/20 02:19:53;;;;;;;23.58;11.63;;;;;;;13.29;100.00;94548.03;10517981;28;20028;-73
2021/09/20 02:24:53;;;;;;;19.92;10.05;;;;;;;13.27;100.00;94528.59;10535320;28;20020;-72
2021/09/20 02:29:54;;;;;;;22.60;11.02;;;;;;;13.16;100.00;94509.09;10534259;28;20042;-73
2021/09/20 02:34:54;;;;;;;18.27;10.68;;;;;;;13.18;100.00;94503.41;10533784;28;20060;-73
2021/09/20 02:39:55;;;;;;;20.48;11.43;;;;;;;13.19;100.00;94480.72;10533244;28;20031;-73
2021/09/20 02:44:55;;;;;;;22.02;10.77;;;;;;;13.16;100.00;94506.41;10533940;28;20028;-73
2021/09/20 02:49:56;;;;;;;19.75;10.55;;;;;;;13.20;100.00;94510.13;10534798;28;20028;-73
2021/09/20 02:54:56;;;;;;;17.27;10.30;;;;;;;13.20;100.00;94502.03;10516381;28;20023;-72
2021/09/20 02:59:57;;;;;;;22.15;11.77;;;;;;;13.07;100.00;94516.25;10533956;28;20270;-73
2021/09/20 03:04:57;;;;;;;24.08;11.13;;;;;;;13.14;100.00;94509.41;10533472;28;20111;-73
2021/09/20 03:09:58;;;;;;;17.88;11.73;;;;;;;13.05;100.00;94519.25;10533081;28;20051;-72
2021/09/20 03:14:58;;;;;;;18.10;11.27;;;;;;;12.92;100.00;94523.50;10531715;28;20123;-72
2021/09/20 03:19:59;;;;;;;21.38;11.23;;;;;;;12.79;100.00;94519.63;10533431;28;20055;-73
2021/09/20 03:24:59;;;;;;;21.65;11.25;;;;;;;12.90;100.00;94522.19;10533685;28;20059;-73
2021/09/20 03:30:01;;;;;;;22.33;13.57;;;;;;;12.81;100.00;94525.53;10532463;28;20020;-72
2021/09/20 03:35:02;;;;;;;22.35;12.80;;;;;;;12.89;100.00;94521.38;10531321;28;20031;-72
2021/09/20 03:40:03;;;;;;;24.50;13.07;;;;;;;13.05;100.00;94519.25;10532920;28;20031;-72
2021/09/20 03:45:04;;;;;;;20.27;11.95;;;;;;;12.97;100.00;94536.88;10534251;28;20080;-72
2021/09/20 03:50:06;;;;;;;23.60;13.23;;;;;;;12.92;100.00;94546.94;10516499;28;20088;-72
2021/09/20 03:55:08;;;;;;;21.10;12.48;;;;;;;13.05;100.00;94530.03;10532218;28;20185;-72
2021/09/20 04:00:09;;;;;;;36.22;14.18;;;;;;;13.04;100.00;94519.53;10531674;28;20032;-72
2021/09/20 04:05:11;;;;;;;26.75;12.98;;;;;;;13.08;100.00;94515.97;10533709;28;20039;-72
2021/09/20 04:10:12;;;;;;;23.27;13.93;;;;;;;13.18;100.00;94517.69;10531483;28;20028;-72
2021/09/20 04:15:13;;;;;;;28.05;16.20;;;;;;;13.15;100.00;94520.97;10491417;28;20044;-72
2021/09/20 04:20:14;;;;;;;27.67;16.33;;;;;;;13.28;100.00;94530.22;10491684;28;20480;-72
2021/09/20 04:25:14;;;;;;;31.13;16.38;;;;;;;13.19;100.00;94521.22;10490587;28;20776;-71
2021/09/20 04:30:15;;;;;;;33.03;17.85;;;;;;;13.27;100.00;94536.69;10491073;28;20040;-71
2021/09/20 04:35:15;;;;;;;33.72;14.88;;;;;;;13.28;100.00;94525.63;10490428;28;20056;-71
2021/09/20 04:40:16;;;;;;;25.23;14.10;;;;;;;13.02;100.00;94530.63;10470170;28;20732;-72
2021/09/20 04:45:16;;;;;;;26.33;14.07;;;;;;;13.03;100.00;94545.69;10486526;28;20479;-72
2021/09/20 04:50:17;;;;;;;30.88;14.27;;;;;;;13.06;100.00;94523.56;10486133;28;20370;-73
2021/09/20 04:55:17;;;;;;;23.58;14.20;;;;;;;13.05;100.00;94526.56;10487005;28;20029;-73
2021/09/20 05:00:18;;;;;;;33.65;14.38;;;;;;;13.13;100.00;94539.34;10486759;28;20431;-73
2021/09/20 05:05:19;;;;;;;32.85;14.50;;;;;;;13.18;100.00;94550.06;10486351;28;20032;-73
2021/09/20 05:10:20;;;;;;;23.63;12.82;;;;;;;13.31;100.00;94564.72;10525792;28;20463;-73
2021/09/20 05:15:21;;;;;;;33.47;13.43;;;;;;;13.28;100.00;94558.03;10509547;28;20052;-72
2021/09/20 05:20:22;;;;;;;40.55;20.73;;;;;;;13.44;100.00;94563.19;10526211;28;20032;-73
2021/09/20 05:25:22;;;;;;;33.08;16.38;;;;;;;13.69;100.00;94570.06;10503377;28;20039;-72
2021/09/20 05:30:23;;;;;;;28.10;15.68;;;;;;;13.60;100.00;94575.31;10487772;28;20047;-73
2021/09/20 05:35:23;;;;;;;33.97;17.95;;;;;;;14.01;100.00;94577.31;10524248;28;20639;-72
2021/09/20 05:40:24;;;;;;;34.63;16.00;;;;;;;14.46;100.00;94559.72;10527551;28;20019;-73
2021/09/20 05:45:26;;;;;;;30.25;14.05;;;;;;;14.96;100.00;94540.81;10528259;28;20493;-72
2021/09/20 05:50:27;;;;;;;22.42;12.88;;;;;;;15.23;100.00;94543.72;10528109;28;20028;-73
2021/09/20 05:55:28;;;;;;;22.63;12.18;;;;;;;15.30;100.00;94535.97;10527416;28;20023;-73
2021/09/20 06:00:29;;;;;;;28.98;12.63;;;;;;;15.24;100.00;94529.06;10526868;28;20024;-73
2021/09/20 06:05:30;;;;;;;34.42;13.45;;;;;;;15.15;100.00;94529.81;10527599;28;20455;-72
2021/09/20 06:10:30;;;;;;;27.02;13.38;;;;;;;15.02;100.00;94541.50;10526577;28;20043;-73
2021/09/20 06:15:31;;;;;;;28.73;14.80;;;;;;;15.07;100.00;94538.69;10500162;28;20049;-72
2021/09/20 06:20:32;;;;;;;32.95;14.25;;;;;;;15.27;100.00;94517.66;10493432;28;20106;-72
2021/09/20 06:25:32;;;;;;;30.80;14.38;;;;;;;15.34;100.00;94516.09;10527073;28;20024;-73
2021/09/20 06:30:33;;;;;;;26.05;13.57;;;;;;;15.25;100.00;94519.84;10509077;28;20020;-73
2021/09/20 06:35:33;;;;;;;37.08;13.90;;;;;;;15.12;100.00;94530.41;10526670;28;20901;-73
2021/09/20 06:40:34;;;;;;;25.73;14.13;;;;;;;15.23;100.00;94538.31;10522168;28;20059;-73
2021/09/20 06:45:34;;;;;;;26.15;15.23;;;;;;;15.36;100.00;94537.44;10522401;28;20438;-73
2021/09/20 06:50:35;;;;;;;32.38;15.27;;;;;;;15.37;100.00;94544.47;10493807;28;20036;-73
2021/09/20 06:55:35;;;;;;;40.92;18.25;;;;;;;14.95;100.00;94538.41;10496370;28;20036;-73
2021/09/20 07:00:36;;;;;;;35.42;17.42;;;;;;;14.79;100.00;94546.88;10518587;28;20034;-73
2021/09/20 07:05:36;;;;;;;38.13;18.50;;;;;;;14.78;100.00;94550.69;10537205;28;20511;-73
2021/09/20 07:10:37;;;;;;;35.15;19.40;;;;;;;14.85;100.00;94534.81;10536929;28;20067;-73
2021/09/20 07:15:37;;;;;;;34.22;18.95;;;;;;;15.15;100.00;94545.25;10536975;28;20552;-73
2021/09/20 07:20:38;;;;;;;36.95;18.08;;;;;;;15.41;100.00;94545.44;10536071;28;20028;-73
2021/09/20 07:25:39;;;;;;;28.05;18.05;;;;;;;15.68;100.00;94527.44;10518548;28;20028;-73
2021/09/20 07:30:41;;;;;;;29.60;16.25;;;;;;;15.60;100.00;94531.72;10536114;28;20085;-73
2021/09/20 07:35:42;;;;;;;39.15;17.65;;;;;;;15.65;100.00;94541.63;10533978;28;20043;-73
2021/09/20 07:40:42;;;;;;;30.55;18.00;;;;;;;15.66;100.00;94540.50;10532335;28;20020;-73
2021/09/20 07:45:44;;;;;;;36.97;20.20;;;;;;;15.84;100.00;94523.25;10530417;28;20024;-73
2021/09/20 07:50:44;;;;;;;90.88;55.58;;;;;;;16.11;100.00;94529.59;10532054;28;20290;-73
2021/09/20 07:55:47;;;;;;;28.92;17.02;;;;;;;16.39;100.00;94519.28;10532045;28;20032;-73
2021/09/20 08:00:47;;;;;;;36.08;16.75;;;;;;;16.61;100.00;94504.03;10531146;28;20024;-73
2021/09/20 08:05:48;;;;;;;30.07;16.87;;;;;;;17.00;100.00;94509.69;10523799;28;20459;-73
2021/09/20 08:10:49;;;;;;;30.92;16.17;;;;;;;17.74;100.00;94483.38;10530951;28;20298;-73
2021/09/20 08:15:50;;;;;;;28.27;15.88;;;;;;;17.98;100.00;94492.91;10529309;28;20044;-73
2021/09/20 08:20:50;;;;;;;24.80;15.80;;;;;;;18.32;100.00;94477.56;10530746;28;20449;-73
2021/09/20 08:25:51;;;;;;;34.55;14.70;;;;;;;18.55;100.00;94470.69;10530468;28;20497;-73
2021/09/20 08:30:51;;;;;;;29.25;15.02;;;;;;;18.45;100.00;94487.41;10530392;28;20056;-73
2021/09/20 08:35:52;;;;;;;30.02;14.20;;;;;;;18.50;100.00;94500.03;10527625;28;20082;-73
2021/09/20 08:40:53;;;;;;;31.73;14.23;;;;;;;18.68;100.00;94474.28;10529782;28;20024;-73
2021/09/20 08:45:57;;;;;;;35.60;17.00;;;;;;;18.57;100.00;94471.16;10528255;28;20101;-73
2021/09/20 08:50:57;;;;;;;28.73;14.02;;;;;;;18.16;100.00;94448.19;10528745;28;20039;-73
2021/09/20 08:55:58;;;;;;;25.97;14.80;;;;;;;18.01;100.00;94448.75;10529350;28;20050;-72
2021/09/20 09:01:00;;;;;;;28.98;13.52;;;;;;;18.01;100.00;94451.47;10527350;28;20282;-73
2021/09/20 09:06:00;;;;;;;25.63;13.40;;;;;;;17.83;100.00;94442.56;10503889;28;20024;-74
2021/09/20 09:11:12;;;;;;;28.80;14.07;;;;;;;18.57;100.00;94433.06;10485300;28;20033;-71
2021/09/20 09:16:20;;;;;;;26.38;12.52;;;;;;;19.76;100.00;94436.47;10466809;28;20076;-71
2021/09/20 09:21:20;;;;;;;25.58;12.50;;;;;;;20.45;100.00;94407.47;10485231;28;20024;-71
2021/09/20 09:26:21;;;;;;;25.08;11.55;;;;;;;21.26;100.00;94436.72;10484998;28;20506;-71
2021/09/20 09:31:21;;;;;;;23.05;10.25;;;;;;;22.14;100.00;94427.66;10486721;28;20039;-72
2021/09/20 09:36:30;;;;;;;17.73;8.73;;;;;;;22.22;100.00;94423.16;10486235;28;20035;-72
2021/09/20 09:41:37;;;;;;;14.57;7.40;;;;;;;22.25;100.00;94436.13;10486742;28;20275;-72
2021/09/20 09:46:43;;;;;;;22.17;8.10;;;;;;;22.32;100.00;94449.97;10485933;28;20028;-72
2021/09/20 09:51:52;;;;;;;31.50;14.15;;;;;;;21.80;100.00;94446.38;10486108;28;20032;-72
2021/09/20 09:57:16;;;;;;;21.45;13.32;;;;;;;21.28;100.00;94431.72;10466829;28;20503;-73
2021/09/20 10:02:26;;;;;;;27.10;14.25;;;;;;;21.52;100.00;94440.97;10485440;28;20021;-73
2021/09/20 10:07:35;;;;;;;29.45;13.30;;;;;;;21.31;100.00;94427.50;10483695;28;20078;-72
2021/09/20 10:12:37;;;;;;;31.55;14.00;;;;;;;21.57;100.00;94421.56;10484220;28;20450;-73
2021/09/20 10:17:39;;;;;;;41.55;12.50;;;;;;;24.16;100.00;94436.44;10484630;28;20140;-73
2021/09/20 10:22:40;;;;;;;24.10;9.55;;;;;;;26.77;85.02;94415.00;10486401;28;20021;-73
2021/09/20 10:27:41;;;;;;;18.70;9.70;;;;;;;24.91;93.90;94410.06;10493713;28;20024;-73
2021/09/20 10:32:44;;;;;;;18.58;9.43;;;;;;;24.20;99.57;94398.84;10493159;28;20038;-72
2021/09/20 10:37:45;;;;;;;19.70;10.23;;;;;;;22.93;100.00;94412.22;10493353;28;20055;-72
2021/09/20 10:42:47;;;;;;;25.52;10.18;;;;;;;22.51;100.00;94380.81;10493113;28;20028;-72
2021/09/20 10:47:47;;;;;;;23.48;11.52;;;;;;;22.04;100.00;94380.88;10492831;28;20387;-74
2021/09/20 10:53:17;;;;;;;21.05;11.00;;;;;;;24.17;100.00;94367.44;10474845;28;20035;-73
2021/09/20 10:58:19;;;;;;;19.38;8.38;;;;;;;27.61;71.56;94369.22;10491791;28;20028;-73
2021/09/20 11:03:44;;;;;;;15.15;6.97;;;;;;;30.43;55.06;94355.16;10492324;28;20036;-73
2021/09/20 11:08:44;;;;;;;10.45;5.32;;;;;;;32.02;46.14;94343.63;10491794;28;20522;-72
2021/09/20 11:14:01;;;;;;;19.25;5.28;;;;;;;33.67;41.64;94335.38;10526230;28;20059;-74
2021/09/20 11:19:01;;;;;;;;;;;;;;;32.77;45.42;94317.75;10533960;28;20020;-73
2021/09/20 11:24:14;;;;;;;17.00;5.07;;;;;;;30.70;47.71;94305.38;10533828;28;20367;-74
2021/09/20 11:29:22;;;;;;;12.27;4.88;;;;;;;28.87;60.48;94294.47;10532479;28;20399;-74
2021/09/20 11:34:32;;;;;;;16.55;5.72;;;;;;;27.48;67.45;94294.28;10531504;28;20040;-73
2021/09/20 11:39:45;;;;;;;20.23;7.53;;;;;;;26.63;81.85;94279.03;10507899;28;20077;-73
2021/09/20 11:44:51;;;;;;;19.65;6.45;;;;;;;25.79;76.93;94282.44;10526794;28;20911;-73
2021/09/20 11:50:04;;;;;;;17.23;5.90;;;;;;;25.33;82.40;94286.44;10532511;28;20032;-73
2021/09/20 11:55:21;;;;;;;12.73;5.40;;;;;;;24.75;87.74;94266.56;10531658;28;20097;-74
2021/09/20 12:00:28;;;;;;;9.53;5.00;;;;;;;24.21;93.15;94246.66;10530924;28;20024;-73
2021/09/20 12:05:34;;;;;;;12.50;5.30;;;;;;;24.10;94.98;94229.25;10523476;28;20054;-73
2021/09/20 12:10:39;;;;;;;17.58;5.68;;;;;;;24.10;100.00;94218.25;10489666;28;20036;-73
2021/09/20 12:15:42;;;;;;;11.77;5.05;;;;;;;24.27;97.19;94216.94;10495027;28;20508;-73
2021/09/20 12:20:49;;;;;;;27.02;6.18;;;;;;;24.55;87.73;94213.72;10522281;28;20036;-73
2021/09/20 12:25:51;;;;;;;17.20;5.68;;;;;;;24.73;90.41;94206.47;10530232;28;20077;-73
2021/09/20 12:30:57;;;;;;;12.35;3.30;;;;;;;25.02;70.62;94172.97;10529104;28;20112;-73
2021/09/20 12:35:58;;;;;;;16.80;3.53;;;;;;;25.27;66.48;94183.38;10528871;28;20062;-73
2021/09/20 12:41:09;;;;;;;21.25;4.05;;;;;;;25.49;65.66;94170.59;10529227;28;20157;-73
2021/09/20 12:46:16;;;;;;;8.27;3.30;;;;;;;25.35;69.91;94183.06;10510437;28;20042;-73
2021/09/20 12:51:17;;;;;;;9.90;2.80;;;;;;;25.29;66.24;94176.34;10527514;28;20189;-73
2021/09/20 12:56:17;;;;;;;9.35;3.58;;;;;;;25.34;67.58;94178.78;10527974;28;20379;-73
2021/09/20 13:01:27;;;;;;;14.63;3.15;;;;;;;25.54;70.31;94184.00;10529311;28;20026;-73
2021/09/20 13:06:28;;;;;;;8.70;2.15;;;;;;;25.42;61.00;94180.41;10529256;28;20031;-73
2021/09/20 13:11:43;;;;;;;16.42;2.83;;;;;;;25.42;61.35;94176.84;10528920;28;20144;-73
2021/09/20 13:16:43;;;;;;;8.13;2.15;;;;;;;25.31;57.44;94176.72;10528542;28;20649;-73
2021/09/20 13:21:44;;;;;;;9.80;2.38;;;;;;;25.24;60.93;94180.25;10528324;28;20115;-73
2021/09/20 13:26:44;;;;;;;7.13;2.33;;;;;;;25.39;60.57;94183.91;10528191;28;20191;-73
2021/09/20 13:31:46;;;;;;;11.87;2.97;;;;;;;25.53;68.72;94194.22;10528052;28;20036;-73
2021/09/20 13:36:47;;;;;;;6.70;1.92;;;;;;;25.46;57.13;94196.13;10527640;28;20093;-73
2021/09/20 13:41:47;;;;;;;9.30;2.17;;;;;;;25.41;56.30;94189.00;10527728;28;20500;-73
2021/09/20 13:46:48;;;;;;;5.07;1.98;;;;;;;25.54;57.29;94189.53;10491895;28;20032;-73
2021/09/20 13:51:48;;;;;;;6.10;2.07;;;;;;;25.44;54.13;94193.78;10485359;28;20127;-73
2021/09/20 13:56:49;;;;;;;7.43;2.53;;;;;;;25.39;61.96;94200.41;10484586;28;20275;-72
2021/09/20 14:01:49;;;;;;;6.23;2.07;;;;;;;25.16;62.19;94205.28;10484934;28;20039;-73
2021/09/20 14:06:49;;;;;;;8.50;2.37;;;;;;;25.08;61.67;94231.94;10484553;28;20028;-73
2021/09/20 14:11:50;;;;;;;4.23;1.77;;;;;;;25.02;80.71;94267.25;10484113;28;20282;-73
2021/09/20 14:16:54;;;;;;;4.53;1.83;;;;;;;24.50;95.48;94311.00;10483634;28;20048;-73
2021/09/20 14:21:55;;;;;;;3.65;1.80;;;;;;;24.05;100.00;94327.22;10500112;28;20083;-73
2021/09/20 14:26:56;;;;;;;6.25;1.80;;;;;;;23.17;100.00;94347.31;10526461;28;20106;-73
2021/09/20 14:31:57;;;;;;;5.28;2.22;;;;;;;22.26;100.00;94373.97;10526692;28;20047;-72
2021/09/20 14:36:57;;;;;;;9.98;1.92;;;;;;;21.96;100.00;94372.53;10525676;28;20032;-73
2021/09/20 14:41:58;;;;;;;3.70;2.40;;;;;;;21.97;100.00;94387.75;10525309;28;20016;-73
2021/09/20 14:46:58;;;;;;;7.25;1.95;;;;;;;21.38;100.00;94394.06;10524254;28;20020;-73
2021/09/20 14:51:59;;;;;;;4.53;2.05;;;;;;;20.89;100.00;94403.28;10524408;28;20192;-73
2021/09/20 14:56:59;;;;;;;8.20;2.20;;;;;;;20.91;100.00;94420.94;10524773;28;20123;-73
2021/09/20 15:02:00;;;;;;;3.85;1.67;;;;;;;20.49;100.00;94449.31;10492940;28;20670;-73
2021/09/20 15:07:01;;;;;;;4.72;1.83;;;;;;;20.24;100.00;94456.72;10516030;28;20122;-73
2021/09/20 15:12:02;;;;;;;5.80;2.38;;;;;;;19.69;100.00;94469.75;10514209;28;20039;-73
2021/09/20 15:17:04;;;;;;;4.53;2.00;;;;;;;19.39;100.00;94471.81;10490518;28;20143;-73
2021/09/20 15:22:04;;;;;;;4.25;2.00;;;;;;;19.23;100.00;94486.06;10498406;28;20123;-73
2021/09/20 15:27:04;;;;;;;4.22;2.25;;;;;;;19.05;100.00;94499.03;10511167;28;20024;-73
2021/09/20 15:32:09;;;;;;;4.27;2.60;;;;;;;18.97;100.00;94520.88;10530838;28;20536;-73
2021/09/20 15:37:10;;;;;;;5.82;2.10;;;;;;;18.84;100.00;94536.31;10530951;28;20278;-73
2021/09/20 15:42:10;;;;;;;5.03;2.33;;;;;;;18.73;100.00;94547.59;10528983;28;20026;-72
2021/09/20 15:47:11;;;;;;;5.50;2.33;;;;;;;18.76;100.00;94549.66;10529649;28;20099;-73
2021/09/20 15:52:11;;;;;;;6.43;2.90;;;;;;;18.40;100.00;94561.84;10523354;28;20278;-72
2021/09/20 15:57:12;;;;;;;8.77;3.13;;;;;;;18.26;100.00;94564.78;10511231;28;20024;-73
2021/09/20 16:02:12;;;;;;;5.28;2.80;;;;;;;17.96;100.00;94585.69;10528841;28;20012;-73
2021/09/20 16:07:13;;;;;;;6.80;2.78;;;;;;;17.99;100.00;94576.09;10529274;28;20102;-73
2021/09/20 16:12:13;;;;;;;6.30;3.03;;;;;;;17.68;100.00;94587.94;10528912;28;20035;-74
2021/09/20 16:17:16;;;;;;;5.60;3.05;;;;;;;17.53;100.00;94587.31;10512359;28;20048;-73
2021/09/20 16:22:17;;;;;;;5.45;2.47;;;;;;;17.53;100.00;94587.31;10484106;28;20021;-72
2021/09/20 16:27:20;;;;;;;2.95;2.17;;;;;;;17.42;100.00;94607.78;10484189;28;20046;-73
2021/09/20 16:32:21;;;;;;;8.07;2.40;;;;;;;17.26;100.00;94610.16;10444328;28;20039;-73
2021/09/20 16:37:21;;;;;;;3.33;2.88;;;;;;;17.28;100.00;94613.38;10446060;28;20027;-73
2021/09/20 16:42:22;;;;;;;4.95;2.80;;;;;;;17.31;100.00;94622.81;10484305;28;20166;-73
2021/09/20 16:47:23;;;;;;;3.50;2.75;;;;;;;17.12;100.00;94626.63;10485206;28;20043;-73
2021/09/20 16:52:23;;;;;;;4.87;3.03;;;;;;;17.12;100.00;94626.63;10481586;28;20030;-73
2021/09/20 16:57:24;;;;;;;4.43;4.03;;;;;;;17.00;100.00;94637.31;10463651;28;20758;-73
2021/09/20 17:02:24;;;;;;;6.70;4.57;;;;;;;17.00;100.00;94640.81;10462956;28;20090;-73
2021/09/20 17:07:25;;;;;;;5.22;4.35;;;;;;;16.93;100.00;94648.63;10468748;28;20032;-73
2021/09/20 17:12:25;;;;;;;8.40;5.15;;;;;;;16.87;100.00;94657.97;10461130;28;20046;-73
2021/09/20 17:17:27;;;;;;;7.28;5.57;;;;;;;16.74;100.00;94654.25;10504768;28;20058;-73
2021/09/20 17:22:27;;;;;;;9.95;5.75;;;;;;;16.60;100.00;94664.44;10503479;28;20047;-73
2021/09/20 17:27:28;;;;;;;8.05;6.20;;;;;;;16.62;100.00;94668.44;10504553;28;20030;-73
2021/09/20 17:32:28;;;;;;;9.50;5.13;;;;;;;16.73;100.00;94685.22;10506369;28;20020;-73
2021/09/20 17:37:29;;;;;;;7.25;6.00;;;;;;;16.62;100.00;94673.88;10526490;28;20289;-73
2021/09/20 17:42:30;;;;;;;10.80;5.85;;;;;;;16.53;100.00;94690.09;10524032;28;20103;-73
2021/09/20 17:47:30;;;;;;;8.05;6.43;;;;;;;16.53;100.00;94706.38;10523278;28;20052;-73
2021/09/20 17:52:30;;;;;;;11.88;7.78;;;;;;;16.45;100.00;94711.75;10527626;28;20023;-73
2021/09/20 17:57:31;;;;;;;11.13;6.43;;;;;;;16.42;100.00;94721.31;10526607;28;20024;-73
2021/09/20 18:02:32;;;;;;;7.93;5.95;;;;;;;16.45;100.00;94739.69;10525844;28;20266;-73
2021/09/20 18:07:32;;;;;;;8.90;6.20;;;;;;;16.36;100.00;94752.41;10527418;28;20028;-74
2021/09/20 18:12:33;;;;;;;10.00;6.50;;;;;;;16.35;100.00;94765.16;10526858;28;20097;-73
2021/09/20 18:17:34;;;;;;;9.43;6.95;;;;;;;16.41;100.00;94765.84;10526188;28;20507;-73
2021/09/20 18:22:36;;;;;;;10.73;6.65;;;;;;;16.25;100.00;94775.44;10525287;28;20063;-74
2021/09/20 18:27:40;;;;;;;12.45;7.10;;;;;;;16.16;100.00;94778.91;10526448;28;20035;-73
2021/09/20 18:32:41;;;;;;;7.70;6.18;;;;;;;16.08;100.00;94798.59;10524878;28;20347;-73
2021/09/20 18:37:42;;;;;;;10.18;7.78;;;;;;;16.00;100.00;94816.38;10524614;28;20066;-73
2021/09/20 18:42:42;;;;;;;8.65;5.97;;;;;;;15.92;100.00;94822.56;10526194;28;20977;-73
2021/09/20 18:47:44;;;;;;;13.73;7.55;;;;;;;15.92;100.00;94840.72;10533668;28;20478;-73
2021/09/20 18:52:45;;;;;;;11.48;7.40;;;;;;;15.80;100.00;94843.97;10533721;28;20028;-74
2021/09/20 18:57:47;;;;;;;24.38;8.70;;;;;;;15.80;100.00;94852.09;10533835;28;20024;-73
2021/09/20 19:02:47;;;;;;;17.88;8.13;;;;;;;15.58;100.00;94867.09;10505358;28;20024;-74
2021/09/20 19:07:47;;;;;;;10.47;7.73;;;;;;;15.72;100.00;94876.03;10532123;28;20024;-74
2021/09/20 19:12:48;;;;;;;12.57;8.33;;;;;;;15.71;100.00;94865.50;10515664;28;20371;-73
2021/09/20 19:17:49;;;;;;;16.35;9.07;;;;;;;15.82;100.00;94866.13;10490693;28;20725;-73
2021/09/20 19:22:51;;;;;;;11.60;7.85;;;;;;;15.72;100.00;94878.72;10575156;22;20143;-67
2021/09/20 19:27:52;;;;;;;12.75;9.07;;;;;;;15.96;100.00;94885.06;10531178;28;20057;-72
2021/09/20 19:32:53;;;;;;;13.45;9.25;;;;;;;16.08;100.00;94888.06;10514240;28;20092;-70
2021/09/20 19:37:53;;;;;;;13.00;8.98;;;;;;;15.76;100.00;94892.50;10534484;28;20027;-75
2021/09/20 19:42:55;;;;;;;16.35;8.30;;;;;;;15.84;100.00;94896.44;10550263;27;20046;-68
2021/09/20 19:47:55;;;;;;;12.00;8.20;;;;;;;15.72;100.00;94907.75;10566372;27;20046;-69
2021/09/20 19:52:56;;;;;;;15.38;8.77;;;;;;;15.53;100.00;94905.94;10537497;28;20024;-73
2021/09/20 20:00:01;;;;;;;14.35;8.35;;;;;;;15.05;100.00;94917.09;10398023;27;20385;-67
2021/09/20 20:05:02;;;;;;;13.63;7.95;;;;;;;14.98;100.00;94914.75;10358992;28;20038;-72
2021/09/20 20:10:04;;;;;;;17.35;8.93;;;;;;;14.97;100.00;94915.06;10355503;28;20414;-66
2021/09/20 20:15:05;;;;;;;11.95;8.48;;;;;;;14.94;100.00;94915.66;10338800;28;20403;-68
2021/09/20 20:20:07;;;;;;;12.48;8.85;;;;;;;14.77;100.00;94927.81;10362714;28;20025;-67
2021/09/20 20:25:08;;;;;;;13.52;8.02;;;;;;;14.98;100.00;94930.22;10434082;28;20444;-67
2021/09/20 20:30:10;;;;;;;12.88;8.73;;;;;;;15.06;100.00;94939.53;10425017;28;20128;-68
2021/09/20 20:35:11;;;;;;;12.82;8.13;;;;;;;15.10;100.00;94957.63;10373427;28;20030;-74
2021/09/20 20:40:12;;;;;;;14.50;9.35;;;;;;;14.99;100.00;94969.72;10351548;28;20766;-70
2021/09/20 20:45:13;;;;;;;9.40;7.22;;;;;;;14.60;100.00;94965.41;10324469;28;20013;-67
2021/09/20 20:50:13;;;;;;;14.75;10.20;;;;;;;14.60;100.00;94978.94;10348353;28;20025;-72
2021/09/20 20:55:14;;;;;;;15.85;8.93;;;;;;;14.71;100.00;94975.00;10351428;28;20030;-72
2021/09/20 21:00:14;;;;;;;17.43;9.87;;;;;;;14.79;100.00;94978.94;10332167;28;20030;-67
2021/09/20 21:05:15;;;;;;;13.82;8.40;;;;;;;14.74;100.00;94976.31;10288584;28;20069;-70
2021/09/20 21:10:15;;;;;;;14.82;9.18;;;;;;;14.70;100.00;94979.59;10262292;28;20093;-72
2021/09/20 21:15:16;;;;;;;14.73;9.48;;;;;;;14.38;100.00;94980.28;10270369;28;20034;-66
2021/09/20 21:20:17;;;;;;;16.43;9.23;;;;;;;14.43;100.00;94980.22;10282199;28;20030;-73
2021/09/20 21:25:17;;;;;;;11.38;7.75;;;;;;;14.24;100.00;94980.19;10290554;28;20281;-67
2021/09/20 21:30:18;;;;;;;11.90;7.30;;;;;;;14.31;100.00;94987.97;10284515;28;20042;-67
2021/09/20 21:35:18;;;;;;;11.70;6.68;;;;;;;14.19;100.00;94996.47;10289248;28;20351;-68
2021/09/20 21:40:19;;;;;;;10.35;6.88;;;;;;;14.24;100.00;94979.41;10288447;28;20056;-66
2021/09/20 21:45:19;;;;;;;9.02;5.85;;;;;;;13.78;100.00;94986.94;10275497;28;20507;-68
2021/09/20 21:50:20;;;;;;;7.90;4.83;;;;;;;13.74;100.00;94995.94;10294527;28;20022;-70
2021/09/20 21:55:21;;;;;;;8.10;4.68;;;;;;;13.90;100.00;95008.19;10291816;28;20857;-71
2021/09/20 22:00:21;;;;;;;7.93;4.85;;;;;;;13.92;100.00;95008.69;10291287;28;20648;-67
2021/09/20 22:05:22;;;;;;;7.53;4.83;;;;;;;13.88;100.00;95015.75;10295291;28;20032;-66
2021/09/20 22:10:22;;;;;;;7.63;5.30;;;;;;;13.82;100.00;95025.81;10292488;28;20865;-67
2021/09/20 22:15:22;;;;;;;8.83;5.80;;;;;;;13.66;100.00;95016.25;10291333;28;20031;-67
2021/09/20 22:20:23;;;;;;;8.13;5.95;;;;;;;13.60;100.00;95015.50;10250569;28;20278;-66
2021/09/20 22:25:24;;;;;;;8.65;5.78;;;;;;;13.52;100.00;95009.91;10261421;28;20472;-67
2021/09/20 22:30:24;;;;;;;10.52;6.15;;;;;;;13.51;100.00;95001.03;10290773;28;20030;-65
2021/09/20 22:35:24;;;;;;;10.65;7.13;;;;;;;13.38;100.00;94998.97;10289502;28;20504;-67
2021/09/20 22:40:25;;;;;;;11.70;6.37;;;;;;;13.35;100.00;95005.75;10316124;28;20707;-67
2021/09/20 22:45:26;;;;;;;10.90;6.47;;;;;;;13.45;100.00;95008.38;10324257;28;20377;-70
2021/09/20 22:50:27;;;;;;;11.10;6.60;;;;;;;13.58;100.00;95012.28;10322464;28;20575;-65
2021/09/20 22:55:28;;;;;;;10.57;6.15;;;;;;;13.42;100.00;95014.31;10322128;28;20050;-70